sensor_id;sensor_type;location;lat;lon;timestamp;temperature;humidity
18741;DHT22;9499;52.472;13.448;2023-05-31T00:02:13;16.60;99.90
18741;DHT22;9499;52.472;13.448;2023-05-31T00:04:40;16.60;99.90
18741;DHT22;9499;52.472;13.448;2023-05-31T00:07:06;16.50;99.90
18741;DHT22;9499;52.472;13.448;2023-05-31T00:09:33;16.50;99.90
18741;DHT22;9499;52.472;13.448;2023-05-31T00:12:00;16.40;99.90
18741;DHT22;9499;52.472;13.448;2023-05-31T00:14:26;16.40;99.90
18741;DHT22;9499;52.472;13.448;2023-05-31T00:16:54;16.40;99.90
18741;DHT22;9499;52.472;13.448;2023-05-31T00:19:21;16.20;99.90
18741;DHT22;9499;52.472;13.448;2023-05-31T00:21:47;16.20;99.90
18741;DHT22;9499;52.472;13.448;2023-05-31T00:24:15;16.10;1.00
18741;DHT22;9499;52.472;13.448;2023-05-31T00:26:41;16.10;1.00
18741;DHT22;9499;52.472;13.448;2023-05-31T00:29:08;16.20;1.00
18741;DHT22;9499;52.472;13.448;2023-05-31T00:31:35;16.10;1.00
18741;DHT22;9499;52.472;13.448;2023-05-31T00:34:02;16.00;1.00
18741;DHT22;9499;52.472;13.448;2023-05-31T00:36:29;15.90;1.00
18741;DHT22;9499;52.472;13.448;2023-05-31T00:38:55;15.90;1.00
18741;DHT22;9499;52.472;13.448;2023-05-31T00:41:22;15.80;1.00
18741;DHT22;9499;52.472;13.448;2023-05-31T00:43:48;15.80;1.00
18741;DHT22;9499;52.472;13.448;2023-05-31T00:46:24;15.70;1.00
18741;DHT22;9499;52.472;13.448;2023-05-31T00:48:51;15.70;1.00
18741;DHT22;9499;52.472;13.448;2023-05-31T00:51:19;15.80;1.00
18741;DHT22;9499;52.472;13.448;2023-05-31T00:53:46;15.80;1.00
18741;DHT22;9499;52.472;13.448;2023-05-31T00:56:13;15.80;1.00
18741;DHT22;9499;52.472;13.448;2023-05-31T00:58:40;15.80;1.00
18741;DHT22;9499;52.472;13.448;2023-05-31T01:01:07;15.80;1.00
18741;DHT22;9499;52.472;13.448;2023-05-31T01:03:34;15.80;1.00
18741;DHT22;9499;52.472;13.448;2023-05-31T01:06:01;15.80;1.00
18741;DHT22;9499;52.472;13.448;2023-05-31T01:08:29;15.70;1.00
18741;DHT22;9499;52.472;13.448;2023-05-31T01:11:01;15.60;1.00
18741;DHT22;9499;52.472;13.448;2023-05-31T01:13:34;15.60;1.00
18741;DHT22;9499;52.472;13.448;2023-05-31T01:16:07;15.60;1.00
18741;DHT22;9499;52.472;13.448;2023-05-31T01:18:41;15.50;1.00
18741;DHT22;9499;52.472;13.448;2023-05-31T01:21:11;15.50;1.00
18741;DHT22;9499;52.472;13.448;2023-05-31T01:23:52;15.50;1.00
18741;DHT22;9499;52.472;13.448;2023-05-31T01:26:46;15.40;1.00
18741;DHT22;9499;52.472;13.448;2023-05-31T01:29:19;15.40;1.00
18741;DHT22;9499;52.472;13.448;2023-05-31T01:31:47;15.40;1.00
18741;DHT22;9499;52.472;13.448;2023-05-31T01:34:14;15.40;1.00
18741;DHT22;9499;52.472;13.448;2023-05-31T01:36:41;15.40;1.00
18741;DHT22;9499;52.472;13.448;2023-05-31T01:39:09;15.30;1.00
18741;DHT22;9499;52.472;13.448;2023-05-31T01:41:38;15.30;1.00
18741;DHT22;9499;52.472;13.448;2023-05-31T01:44:07;15.30;1.00
18741;DHT22;9499;52.472;13.448;2023-05-31T01:46:34;15.20;1.00
18741;DHT22;9499;52.472;13.448;2023-05-31T01:49:01;15.20;1.00
18741;DHT22;9499;52.472;13.448;2023-05-31T01:51:29;15.20;1.00
18741;DHT22;9499;52.472;13.448;2023-05-31T01:53:57;15.10;1.00
18741;DHT22;9499;52.472;13.448;2023-05-31T01:56:25;15.10;1.00
18741;DHT22;9499;52.472;13.448;2023-05-31T01:58:54;15.10;1.00
18741;DHT22;9499;52.472;13.448;2023-05-31T02:01:23;15.00;1.00
18741;DHT22;9499;52.472;13.448;2023-05-31T02:03:50;14.90;1.00
18741;DHT22;9499;52.472;13.448;2023-05-31T02:06:17;14.90;1.00
18741;DHT22;9499;52.472;13.448;2023-05-31T02:08:44;14.90;1.00
18741;DHT22;9499;52.472;13.448;2023-05-31T02:11:10;14.90;1.00
18741;DHT22;9499;52.472;13.448;2023-05-31T02:13:37;14.90;1.00
18741;DHT22;9499;52.472;13.448;2023-05-31T02:16:04;14.90;1.00
18741;DHT22;9499;52.472;13.448;2023-05-31T02:18:32;15.00;1.00
18741;DHT22;9499;52.472;13.448;2023-05-31T02:21:01;14.90;1.00
18741;DHT22;9499;52.472;13.448;2023-05-31T02:23:27;14.90;1.00
18741;DHT22;9499;52.472;13.448;2023-05-31T02:25:54;14.80;1.00
18741;DHT22;9499;52.472;13.448;2023-05-31T02:28:21;14.90;1.00
18741;DHT22;9499;52.472;13.448;2023-05-31T02:30:55;14.80;1.00
18741;DHT22;9499;52.472;13.448;2023-05-31T02:33:21;14.80;1.00
18741;DHT22;9499;52.472;13.448;2023-05-31T02:35:49;14.70;12.60
18741;DHT22;9499;52.472;13.448;2023-05-31T02:38:16;14.70;1.00
18741;DHT22;9499;52.472;13.448;2023-05-31T02:40:43;14.70;10.50
18741;DHT22;9499;52.472;13.448;2023-05-31T02:43:09;14.70;86.90
18741;DHT22;9499;52.472;13.448;2023-05-31T02:45:36;14.60;20.90
18741;DHT22;9499;52.472;13.448;2023-05-31T02:48:03;14.60;34.90
18741;DHT22;9499;52.472;13.448;2023-05-31T02:50:31;14.60;1.00
18741;DHT22;9499;52.472;13.448;2023-05-31T02:52:59;14.60;1.00
18741;DHT22;9499;52.472;13.448;2023-05-31T02:55:29;14.60;1.00
18741;DHT22;9499;52.472;13.448;2023-05-31T02:57:56;14.50;1.00
18741;DHT22;9499;52.472;13.448;2023-05-31T03:00:22;14.50;1.00
18741;DHT22;9499;52.472;13.448;2023-05-31T03:02:49;14.40;10.90
18741;DHT22;9499;52.472;13.448;2023-05-31T03:05:16;14.40;99.90
18741;DHT22;9499;52.472;13.448;2023-05-31T03:07:42;14.40;99.90
18741;DHT22;9499;52.472;13.448;2023-05-31T03:10:10;14.40;6.30
18741;DHT22;9499;52.472;13.448;2023-05-31T03:12:37;14.30;77.70
18741;DHT22;9499;52.472;13.448;2023-05-31T03:15:04;14.30;99.90
18741;DHT22;9499;52.472;13.448;2023-05-31T03:17:31;14.40;99.90
18741;DHT22;9499;52.472;13.448;2023-05-31T03:19:58;14.40;99.90
18741;DHT22;9499;52.472;13.448;2023-05-31T03:22:24;14.40;99.90
18741;DHT22;9499;52.472;13.448;2023-05-31T03:24:51;14.40;99.90
18741;DHT22;9499;52.472;13.448;2023-05-31T03:27:18;14.40;99.90
18741;DHT22;9499;52.472;13.448;2023-05-31T03:29:45;14.40;99.90
18741;DHT22;9499;52.472;13.448;2023-05-31T03:32:11;14.40;99.90
18741;DHT22;9499;52.472;13.448;2023-05-31T03:34:38;14.40;99.90
18741;DHT22;9499;52.472;13.448;2023-05-31T03:37:04;14.30;99.90
18741;DHT22;9499;52.472;13.448;2023-05-31T03:39:31;14.30;99.90
18741;DHT22;9499;52.472;13.448;2023-05-31T03:41:59;14.10;99.90
18741;DHT22;9499;52.472;13.448;2023-05-31T03:44:27;14.00;1.00
18741;DHT22;9499;52.472;13.448;2023-05-31T03:46:54;14.00;1.00
18741;DHT22;9499;52.472;13.448;2023-05-31T03:49:20;14.10;1.00
18741;DHT22;9499;52.472;13.448;2023-05-31T03:51:47;14.10;1.00
18741;DHT22;9499;52.472;13.448;2023-05-31T03:54:13;14.10;1.00
18741;DHT22;9499;52.472;13.448;2023-05-31T03:56:40;14.10;1.00
18741;DHT22;9499;52.472;13.448;2023-05-31T03:59:06;14.20;1.00
18741;DHT22;9499;52.472;13.448;2023-05-31T04:01:34;14.20;1.00
18741;DHT22;9499;52.472;13.448;2023-05-31T04:04:01;14.20;1.00
18741;DHT22;9499;52.472;13.448;2023-05-31T04:06:27;14.20;1.00
18741;DHT22;9499;52.472;13.448;2023-05-31T04:08:54;14.20;99.90
18741;DHT22;9499;52.472;13.448;2023-05-31T04:11:21;14.20;1.00
18741;DHT22;9499;52.472;13.448;2023-05-31T04:13:47;14.20;99.90
18741;DHT22;9499;52.472;13.448;2023-05-31T04:16:14;14.20;99.90
18741;DHT22;9499;52.472;13.448;2023-05-31T04:18:42;14.20;99.90
18741;DHT22;9499;52.472;13.448;2023-05-31T04:21:08;14.20;99.90
18741;DHT22;9499;52.472;13.448;2023-05-31T04:23:35;14.00;99.90
18741;DHT22;9499;52.472;13.448;2023-05-31T04:26:02;14.10;99.90
18741;DHT22;9499;52.472;13.448;2023-05-31T04:28:28;14.10;99.90
18741;DHT22;9499;52.472;13.448;2023-05-31T04:30:57;14.20;99.90
18741;DHT22;9499;52.472;13.448;2023-05-31T04:33:24;14.20;99.90
18741;DHT22;9499;52.472;13.448;2023-05-31T04:35:56;14.30;99.90
18741;DHT22;9499;52.472;13.448;2023-05-31T04:38:23;14.30;99.90
18741;DHT22;9499;52.472;13.448;2023-05-31T04:40:52;14.30;99.90
18741;DHT22;9499;52.472;13.448;2023-05-31T04:43:19;14.30;99.90
18741;DHT22;9499;52.472;13.448;2023-05-31T04:45:46;14.40;99.90
18741;DHT22;9499;52.472;13.448;2023-05-31T04:48:14;14.20;99.90
18741;DHT22;9499;52.472;13.448;2023-05-31T04:50:42;14.20;99.90
18741;DHT22;9499;52.472;13.448;2023-05-31T04:53:10;14.30;99.90
18741;DHT22;9499;52.472;13.448;2023-05-31T04:55:37;14.30;99.90
18741;DHT22;9499;52.472;13.448;2023-05-31T04:58:03;14.40;99.90
18741;DHT22;9499;52.472;13.448;2023-05-31T05:00:30;14.50;99.90
18741;DHT22;9499;52.472;13.448;2023-05-31T05:02:57;14.50;99.90
18741;DHT22;9499;52.472;13.448;2023-05-31T05:05:24;14.60;99.90
18741;DHT22;9499;52.472;13.448;2023-05-31T05:07:51;14.70;99.90
18741;DHT22;9499;52.472;13.448;2023-05-31T05:10:19;14.70;99.90
18741;DHT22;9499;52.472;13.448;2023-05-31T05:12:45;14.80;65.40
18741;DHT22;9499;52.472;13.448;2023-05-31T05:15:12;14.80;30.60
18741;DHT22;9499;52.472;13.448;2023-05-31T05:17:38;14.60;99.90
18741;DHT22;9499;52.472;13.448;2023-05-31T05:20:07;14.60;99.90
18741;DHT22;9499;52.472;13.448;2023-05-31T05:22:35;14.70;99.90
18741;DHT22;9499;52.472;13.448;2023-05-31T05:25:02;14.70;99.90
18741;DHT22;9499;52.472;13.448;2023-05-31T05:27:30;14.80;99.90
18741;DHT22;9499;52.472;13.448;2023-05-31T05:29:56;14.80;99.90
18741;DHT22;9499;52.472;13.448;2023-05-31T05:32:23;14.80;99.90
18741;DHT22;9499;52.472;13.448;2023-05-31T05:34:49;14.90;99.90
18741;DHT22;9499;52.472;13.448;2023-05-31T05:37:16;15.00;99.90
18741;DHT22;9499;52.472;13.448;2023-05-31T05:39:42;15.00;99.90
18741;DHT22;9499;52.472;13.448;2023-05-31T05:42:09;15.10;99.90
18741;DHT22;9499;52.472;13.448;2023-05-31T05:44:38;15.20;78.80
18741;DHT22;9499;52.472;13.448;2023-05-31T05:47:05;15.20;99.90
18741;DHT22;9499;52.472;13.448;2023-05-31T05:49:32;15.30;99.90
18741;DHT22;9499;52.472;13.448;2023-05-31T05:51:59;15.30;99.90
18741;DHT22;9499;52.472;13.448;2023-05-31T05:54:26;15.40;99.90
18741;DHT22;9499;52.472;13.448;2023-05-31T05:56:52;15.40;99.90
18741;DHT22;9499;52.472;13.448;2023-05-31T05:59:19;15.50;39.30
18741;DHT22;9499;52.472;13.448;2023-05-31T06:01:47;15.50;99.90
18741;DHT22;9499;52.472;13.448;2023-05-31T06:04:13;15.50;99.90
18741;DHT22;9499;52.472;13.448;2023-05-31T06:06:40;15.60;94.90
18741;DHT22;9499;52.472;13.448;2023-05-31T06:09:06;15.60;1.00
18741;DHT22;9499;52.472;13.448;2023-05-31T06:11:33;15.60;41.30
18741;DHT22;9499;52.472;13.448;2023-05-31T06:14:00;15.70;1.00
18741;DHT22;9499;52.472;13.448;2023-05-31T06:16:26;15.70;1.00
18741;DHT22;9499;52.472;13.448;2023-05-31T06:18:54;15.80;1.00
18741;DHT22;9499;52.472;13.448;2023-05-31T06:21:20;15.80;1.00
18741;DHT22;9499;52.472;13.448;2023-05-31T06:23:47;15.80;1.00
18741;DHT22;9499;52.472;13.448;2023-05-31T06:26:13;15.80;1.00
18741;DHT22;9499;52.472;13.448;2023-05-31T06:28:40;15.90;1.00
18741;DHT22;9499;52.472;13.448;2023-05-31T06:31:06;16.00;1.00
18741;DHT22;9499;52.472;13.448;2023-05-31T06:33:34;16.10;1.00
18741;DHT22;9499;52.472;13.448;2023-05-31T06:36:02;16.20;1.00
18741;DHT22;9499;52.472;13.448;2023-05-31T06:38:29;16.30;1.00
18741;DHT22;9499;52.472;13.448;2023-05-31T06:40:55;16.40;1.00
18741;DHT22;9499;52.472;13.448;2023-05-31T06:43:22;16.40;1.00
18741;DHT22;9499;52.472;13.448;2023-05-31T06:45:50;16.40;1.00
18741;DHT22;9499;52.472;13.448;2023-05-31T06:48:16;16.50;1.00
18741;DHT22;9499;52.472;13.448;2023-05-31T06:50:43;16.50;1.00
18741;DHT22;9499;52.472;13.448;2023-05-31T06:53:11;16.60;1.00
18741;DHT22;9499;52.472;13.448;2023-05-31T06:55:38;16.60;1.00
18741;DHT22;9499;52.472;13.448;2023-05-31T06:58:04;16.70;1.00
18741;DHT22;9499;52.472;13.448;2023-05-31T07:00:31;16.80;1.00
18741;DHT22;9499;52.472;13.448;2023-05-31T07:02:57;16.80;1.00
18741;DHT22;9499;52.472;13.448;2023-05-31T07:05:24;17.00;99.90
18741;DHT22;9499;52.472;13.448;2023-05-31T07:07:50;17.10;99.90
18741;DHT22;9499;52.472;13.448;2023-05-31T07:10:19;17.20;99.90
18741;DHT22;9499;52.472;13.448;2023-05-31T07:12:45;17.30;99.90
18741;DHT22;9499;52.472;13.448;2023-05-31T07:15:12;17.50;99.90
18741;DHT22;9499;52.472;13.448;2023-05-31T07:17:38;17.60;99.90
18741;DHT22;9499;52.472;13.448;2023-05-31T07:20:06;17.70;99.90
18741;DHT22;9499;52.472;13.448;2023-05-31T07:22:33;17.80;99.90
18741;DHT22;9499;52.472;13.448;2023-05-31T07:25:00;17.90;99.90
18741;DHT22;9499;52.472;13.448;2023-05-31T07:27:30;17.90;99.90
18741;DHT22;9499;52.472;13.448;2023-05-31T07:29:56;17.90;99.90
18741;DHT22;9499;52.472;13.448;2023-05-31T07:32:23;17.90;39.80
18741;DHT22;9499;52.472;13.448;2023-05-31T07:34:49;18.00;7.30
18741;DHT22;9499;52.472;13.448;2023-05-31T07:37:16;18.10;14.30
18741;DHT22;9499;52.472;13.448;2023-05-31T07:39:43;18.20;28.30
18741;DHT22;9499;52.472;13.448;2023-05-31T07:42:10;18.30;21.90
18741;DHT22;9499;52.472;13.448;2023-05-31T07:44:39;18.40;1.00
18741;DHT22;9499;52.472;13.448;2023-05-31T07:47:06;18.50;1.00
18741;DHT22;9499;52.472;13.448;2023-05-31T07:49:32;18.60;1.00
18741;DHT22;9499;52.472;13.448;2023-05-31T07:51:59;18.60;1.00
18741;DHT22;9499;52.472;13.448;2023-05-31T07:54:26;18.60;1.00
18741;DHT22;9499;52.472;13.448;2023-05-31T07:56:52;18.60;1.00
18741;DHT22;9499;52.472;13.448;2023-05-31T07:59:19;18.60;1.00
18741;DHT22;9499;52.472;13.448;2023-05-31T08:01:47;18.70;1.00
18741;DHT22;9499;52.472;13.448;2023-05-31T08:04:13;18.80;1.00
18741;DHT22;9499;52.472;13.448;2023-05-31T08:06:40;18.90;1.00
18741;DHT22;9499;52.472;13.448;2023-05-31T08:09:08;18.90;1.00
18741;DHT22;9499;52.472;13.448;2023-05-31T08:11:35;19.10;1.00
18741;DHT22;9499;52.472;13.448;2023-05-31T08:14:02;19.20;1.00
18741;DHT22;9499;52.472;13.448;2023-05-31T08:16:31;19.10;1.00
18741;DHT22;9499;52.472;13.448;2023-05-31T08:18:59;19.20;1.00
18741;DHT22;9499;52.472;13.448;2023-05-31T08:21:26;19.20;1.00
18741;DHT22;9499;52.472;13.448;2023-05-31T08:23:53;19.30;1.00
18741;DHT22;9499;52.472;13.448;2023-05-31T08:26:20;19.40;1.00
18741;DHT22;9499;52.472;13.448;2023-05-31T08:28:48;19.50;1.00
18741;DHT22;9499;52.472;13.448;2023-05-31T08:31:14;19.60;99.90
18741;DHT22;9499;52.472;13.448;2023-05-31T08:33:52;19.70;99.90
18741;DHT22;9499;52.472;13.448;2023-05-31T08:36:21;19.80;99.90
18741;DHT22;9499;52.472;13.448;2023-05-31T08:38:47;19.90;99.90
18741;DHT22;9499;52.472;13.448;2023-05-31T08:41:14;19.90;99.90
18741;DHT22;9499;52.472;13.448;2023-05-31T08:43:41;20.00;99.90
18741;DHT22;9499;52.472;13.448;2023-05-31T08:46:08;20.00;99.90
18741;DHT22;9499;52.472;13.448;2023-05-31T08:48:37;20.00;99.90
18741;DHT22;9499;52.472;13.448;2023-05-31T08:51:07;20.00;99.90
18741;DHT22;9499;52.472;13.448;2023-05-31T08:53:36;20.00;99.90
18741;DHT22;9499;52.472;13.448;2023-05-31T08:56:03;20.00;99.90
18741;DHT22;9499;52.472;13.448;2023-05-31T08:58:31;20.10;99.90
18741;DHT22;9499;52.472;13.448;2023-05-31T09:00:58;20.20;99.90
18741;DHT22;9499;52.472;13.448;2023-05-31T09:03:24;20.30;99.90
18741;DHT22;9499;52.472;13.448;2023-05-31T09:05:51;20.30;99.90
18741;DHT22;9499;52.472;13.448;2023-05-31T09:08:19;20.30;99.90
18741;DHT22;9499;52.472;13.448;2023-05-31T09:10:47;20.40;99.90
18741;DHT22;9499;52.472;13.448;2023-05-31T09:13:14;20.50;99.90
18741;DHT22;9499;52.472;13.448;2023-05-31T09:15:41;20.50;99.90
18741;DHT22;9499;52.472;13.448;2023-05-31T09:18:12;20.70;99.90
18741;DHT22;9499;52.472;13.448;2023-05-31T09:20:40;20.80;99.90
18741;DHT22;9499;52.472;13.448;2023-05-31T09:23:08;20.60;99.90
18741;DHT22;9499;52.472;13.448;2023-05-31T09:25:45;20.60;99.90
18741;DHT22;9499;52.472;13.448;2023-05-31T09:28:13;20.70;99.90
18741;DHT22;9499;52.472;13.448;2023-05-31T09:30:41;20.80;99.90
18741;DHT22;9499;52.472;13.448;2023-05-31T09:33:07;20.80;99.90
18741;DHT22;9499;52.472;13.448;2023-05-31T09:35:34;20.90;99.90
18741;DHT22;9499;52.472;13.448;2023-05-31T09:38:04;21.00;99.90
18741;DHT22;9499;52.472;13.448;2023-05-31T09:40:31;21.10;99.90
18741;DHT22;9499;52.472;13.448;2023-05-31T09:42:59;21.20;99.90
18741;DHT22;9499;52.472;13.448;2023-05-31T09:45:27;21.30;99.90
18741;DHT22;9499;52.472;13.448;2023-05-31T09:47:55;21.40;99.90
18741;DHT22;9499;52.472;13.448;2023-05-31T09:50:22;21.50;99.90
18741;DHT22;9499;52.472;13.448;2023-05-31T09:52:54;21.60;99.90
18741;DHT22;9499;52.472;13.448;2023-05-31T09:55:21;21.60;99.90
18741;DHT22;9499;52.472;13.448;2023-05-31T09:57:47;21.60;99.90
18741;DHT22;9499;52.472;13.448;2023-05-31T10:00:17;21.50;99.90
18741;DHT22;9499;52.472;13.448;2023-05-31T10:02:46;21.60;99.90
18741;DHT22;9499;52.472;13.448;2023-05-31T10:05:14;21.70;99.90
18741;DHT22;9499;52.472;13.448;2023-05-31T10:07:42;22.00;99.90
18741;DHT22;9499;52.472;13.448;2023-05-31T10:10:10;22.20;99.90
18741;DHT22;9499;52.472;13.448;2023-05-31T10:12:42;22.40;99.90
18741;DHT22;9499;52.472;13.448;2023-05-31T10:15:12;22.60;99.90
18741;DHT22;9499;52.472;13.448;2023-05-31T10:20:29;22.90;99.90
18741;DHT22;9499;52.472;13.448;2023-05-31T10:23:01;23.20;99.90
18741;DHT22;9499;52.472;13.448;2023-05-31T10:25:31;23.60;99.90
18741;DHT22;9499;52.472;13.448;2023-05-31T10:28:01;23.80;99.90
18741;DHT22;9499;52.472;13.448;2023-05-31T10:30:31;23.80;99.90
18741;DHT22;9499;52.472;13.448;2023-05-31T10:33:03;23.90;91.30
18741;DHT22;9499;52.472;13.448;2023-05-31T10:35:33;23.80;88.40
18741;DHT22;9499;52.472;13.448;2023-05-31T10:38:00;23.90;69.70
18741;DHT22;9499;52.472;13.448;2023-05-31T10:40:33;23.80;68.50
18741;DHT22;9499;52.472;13.448;2023-05-31T10:43:07;23.90;60.90
18741;DHT22;9499;52.472;13.448;2023-05-31T10:45:38;24.20;55.70
18741;DHT22;9499;52.472;13.448;2023-05-31T10:48:14;24.30;46.00
18741;DHT22;9499;52.472;13.448;2023-05-31T10:50:54;24.10;42.70
18741;DHT22;9499;52.472;13.448;2023-05-31T10:53:22;24.10;33.80
18741;DHT22;9499;52.472;13.448;2023-05-31T10:55:49;24.10;30.70
18741;DHT22;9499;52.472;13.448;2023-05-31T10:58:26;24.10;29.70
18741;DHT22;9499;52.472;13.448;2023-05-31T11:00:53;24.00;29.90
18741;DHT22;9499;52.472;13.448;2023-05-31T11:03:21;23.90;27.40
18741;DHT22;9499;52.472;13.448;2023-05-31T11:05:57;23.80;24.50
18741;DHT22;9499;52.472;13.448;2023-05-31T11:08:25;23.90;29.20
18741;DHT22;9499;52.472;13.448;2023-05-31T11:10:52;24.00;25.80
18741;DHT22;9499;52.472;13.448;2023-05-31T11:13:18;24.10;18.70
18741;DHT22;9499;52.472;13.448;2023-05-31T11:15:45;24.20;16.80
18741;DHT22;9499;52.472;13.448;2023-05-31T11:18:21;24.30;13.90
18741;DHT22;9499;52.472;13.448;2023-05-31T11:20:48;24.50;13.50
18741;DHT22;9499;52.472;13.448;2023-05-31T11:23:26;24.40;9.70
18741;DHT22;9499;52.472;13.448;2023-05-31T11:26:15;24.20;12.30
18741;DHT22;9499;52.472;13.448;2023-05-31T11:28:56;24.10;7.80
18741;DHT22;9499;52.472;13.448;2023-05-31T11:32:00;24.30;6.10
18741;DHT22;9499;52.472;13.448;2023-05-31T11:34:31;24.60;4.90
18741;DHT22;9499;52.472;13.448;2023-05-31T11:37:00;24.90;1.00
18741;DHT22;9499;52.472;13.448;2023-05-31T11:39:28;24.70;1.00
18741;DHT22;9499;52.472;13.448;2023-05-31T11:41:55;24.80;1.00
18741;DHT22;9499;52.472;13.448;2023-05-31T11:44:27;25.10;1.00
18741;DHT22;9499;52.472;13.448;2023-05-31T11:46:59;25.30;1.00
18741;DHT22;9499;52.472;13.448;2023-05-31T11:49:26;25.50;1.00
18741;DHT22;9499;52.472;13.448;2023-05-31T11:51:54;25.50;1.00
18741;DHT22;9499;52.472;13.448;2023-05-31T11:54:28;25.70;1.00
18741;DHT22;9499;52.472;13.448;2023-05-31T11:57:03;25.70;1.00
18741;DHT22;9499;52.472;13.448;2023-05-31T11:59:31;25.60;1.00
18741;DHT22;9499;52.472;13.448;2023-05-31T12:01:59;25.90;1.00
18741;DHT22;9499;52.472;13.448;2023-05-31T12:04:30;26.30;1.00
18741;DHT22;9499;52.472;13.448;2023-05-31T12:06:57;26.40;1.00
18741;DHT22;9499;52.472;13.448;2023-05-31T12:09:24;26.20;1.00
18741;DHT22;9499;52.472;13.448;2023-05-31T12:11:52;26.00;1.00
18741;DHT22;9499;52.472;13.448;2023-05-31T12:14:20;26.00;1.00
18741;DHT22;9499;52.472;13.448;2023-05-31T12:16:47;26.00;1.00
18741;DHT22;9499;52.472;13.448;2023-05-31T12:19:15;25.90;1.00
18741;DHT22;9499;52.472;13.448;2023-05-31T12:21:42;25.80;1.00
18741;DHT22;9499;52.472;13.448;2023-05-31T12:24:13;25.60;1.00
18741;DHT22;9499;52.472;13.448;2023-05-31T12:26:40;25.50;1.00
18741;DHT22;9499;52.472;13.448;2023-05-31T12:29:10;25.60;1.00
18741;DHT22;9499;52.472;13.448;2023-05-31T12:31:38;25.80;1.00
18741;DHT22;9499;52.472;13.448;2023-05-31T12:34:08;25.70;1.00
18741;DHT22;9499;52.472;13.448;2023-05-31T12:36:40;25.50;1.00
18741;DHT22;9499;52.472;13.448;2023-05-31T12:39:08;25.50;1.00
18741;DHT22;9499;52.472;13.448;2023-05-31T12:41:37;25.70;1.00
18741;DHT22;9499;52.472;13.448;2023-05-31T12:44:03;26.10;1.00
18741;DHT22;9499;52.472;13.448;2023-05-31T12:46:38;26.30;1.00
18741;DHT22;9499;52.472;13.448;2023-05-31T12:49:12;26.40;1.00
18741;DHT22;9499;52.472;13.448;2023-05-31T12:51:39;26.60;1.00
18741;DHT22;9499;52.472;13.448;2023-05-31T12:54:10;26.70;1.00
18741;DHT22;9499;52.472;13.448;2023-05-31T12:56:37;26.70;1.00
18741;DHT22;9499;52.472;13.448;2023-05-31T12:59:03;26.70;1.00
18741;DHT22;9499;52.472;13.448;2023-05-31T13:01:30;26.90;1.00
18741;DHT22;9499;52.472;13.448;2023-05-31T13:03:58;27.00;1.00
18741;DHT22;9499;52.472;13.448;2023-05-31T13:06:24;27.20;1.00
18741;DHT22;9499;52.472;13.448;2023-05-31T13:08:51;27.30;1.00
18741;DHT22;9499;52.472;13.448;2023-05-31T13:11:17;27.10;1.00
18741;DHT22;9499;52.472;13.448;2023-05-31T13:13:44;26.80;1.00
18741;DHT22;9499;52.472;13.448;2023-05-31T13:16:10;26.80;1.00
18741;DHT22;9499;52.472;13.448;2023-05-31T13:18:37;26.70;1.00
18741;DHT22;9499;52.472;13.448;2023-05-31T13:21:05;26.90;1.00
18741;DHT22;9499;52.472;13.448;2023-05-31T13:23:31;27.10;1.00
18741;DHT22;9499;52.472;13.448;2023-05-31T13:25:58;27.10;1.00
18741;DHT22;9499;52.472;13.448;2023-05-31T13:28:24;27.30;1.00
18741;DHT22;9499;52.472;13.448;2023-05-31T13:30:51;27.60;1.00
18741;DHT22;9499;52.472;13.448;2023-05-31T13:33:18;27.80;1.00
18741;DHT22;9499;52.472;13.448;2023-05-31T13:35:45;27.70;1.00
18741;DHT22;9499;52.472;13.448;2023-05-31T13:38:13;27.60;1.00
18741;DHT22;9499;52.472;13.448;2023-05-31T13:40:39;27.20;1.00
18741;DHT22;9499;52.472;13.448;2023-05-31T13:43:07;27.20;1.00
18741;DHT22;9499;52.472;13.448;2023-05-31T13:45:34;27.30;1.00
18741;DHT22;9499;52.472;13.448;2023-05-31T13:48:01;27.30;1.00
18741;DHT22;9499;52.472;13.448;2023-05-31T13:50:27;27.00;1.00
18741;DHT22;9499;52.472;13.448;2023-05-31T13:52:54;26.80;1.00
18741;DHT22;9499;52.472;13.448;2023-05-31T13:55:22;26.90;1.00
18741;DHT22;9499;52.472;13.448;2023-05-31T13:57:48;27.00;1.00
18741;DHT22;9499;52.472;13.448;2023-05-31T14:00:15;27.20;1.00
18741;DHT22;9499;52.472;13.448;2023-05-31T14:02:43;27.30;1.00
18741;DHT22;9499;52.472;13.448;2023-05-31T14:05:09;27.60;1.00
18741;DHT22;9499;52.472;13.448;2023-05-31T14:07:36;27.60;1.00
18741;DHT22;9499;52.472;13.448;2023-05-31T14:10:03;27.60;1.00
18741;DHT22;9499;52.472;13.448;2023-05-31T14:12:31;27.30;1.00
18741;DHT22;9499;52.472;13.448;2023-05-31T14:14:57;27.10;1.00
18741;DHT22;9499;52.472;13.448;2023-05-31T14:17:24;27.30;1.00
18741;DHT22;9499;52.472;13.448;2023-05-31T14:19:50;27.40;1.00
18741;DHT22;9499;52.472;13.448;2023-05-31T14:22:17;27.60;1.00
18741;DHT22;9499;52.472;13.448;2023-05-31T14:24:43;27.70;1.00
18741;DHT22;9499;52.472;13.448;2023-05-31T14:27:10;28.00;1.00
18741;DHT22;9499;52.472;13.448;2023-05-31T14:29:38;28.10;1.00
18741;DHT22;9499;52.472;13.448;2023-05-31T14:32:05;28.10;1.00
18741;DHT22;9499;52.472;13.448;2023-05-31T14:34:31;28.40;1.00
18741;DHT22;9499;52.472;13.448;2023-05-31T14:36:58;28.60;1.00
18741;DHT22;9499;52.472;13.448;2023-05-31T14:39:24;28.70;1.00
18741;DHT22;9499;52.472;13.448;2023-05-31T14:41:51;28.50;1.00
18741;DHT22;9499;52.472;13.448;2023-05-31T14:44:17;28.20;1.00
18741;DHT22;9499;52.472;13.448;2023-05-31T14:46:45;27.70;1.00
18741;DHT22;9499;52.472;13.448;2023-05-31T14:49:12;27.70;1.00
18741;DHT22;9499;52.472;13.448;2023-05-31T14:51:38;27.90;1.00
18741;DHT22;9499;52.472;13.448;2023-05-31T14:54:05;28.00;1.00
18741;DHT22;9499;52.472;13.448;2023-05-31T14:56:31;28.00;1.00
18741;DHT22;9499;52.472;13.448;2023-05-31T14:58:58;28.00;1.00
18741;DHT22;9499;52.472;13.448;2023-05-31T15:01:24;28.20;1.00
18741;DHT22;9499;52.472;13.448;2023-05-31T15:03:52;28.60;1.00
18741;DHT22;9499;52.472;13.448;2023-05-31T15:06:20;29.00;1.00
18741;DHT22;9499;52.472;13.448;2023-05-31T15:08:47;29.20;1.00
18741;DHT22;9499;52.472;13.448;2023-05-31T15:11:13;29.20;1.00
18741;DHT22;9499;52.472;13.448;2023-05-31T15:13:40;28.90;1.00
18741;DHT22;9499;52.472;13.448;2023-05-31T15:16:06;28.60;1.00
18741;DHT22;9499;52.472;13.448;2023-05-31T15:18:33;28.70;1.00
18741;DHT22;9499;52.472;13.448;2023-05-31T15:21:01;28.90;1.00
18741;DHT22;9499;52.472;13.448;2023-05-31T15:23:27;29.30;1.00
18741;DHT22;9499;52.472;13.448;2023-05-31T15:25:54;29.40;1.00
18741;DHT22;9499;52.472;13.448;2023-05-31T15:28:20;29.10;1.00
18741;DHT22;9499;52.472;13.448;2023-05-31T15:30:47;28.20;1.00
18741;DHT22;9499;52.472;13.448;2023-05-31T15:33:13;27.90;1.00
18741;DHT22;9499;52.472;13.448;2023-05-31T15:35:40;27.60;1.00
18741;DHT22;9499;52.472;13.448;2023-05-31T15:38:08;27.50;1.00
18741;DHT22;9499;52.472;13.448;2023-05-31T15:40:34;27.50;1.00
18741;DHT22;9499;52.472;13.448;2023-05-31T15:43:01;27.60;1.00
18741;DHT22;9499;52.472;13.448;2023-05-31T15:45:27;27.90;1.00
18741;DHT22;9499;52.472;13.448;2023-05-31T15:47:54;28.20;1.00